createdAt,value
2018-01-18T00:02:54.754Z,12.90
2018-01-18T00:05:49.973Z,18.30
2018-01-18T00:11:30.916Z,10.98
2018-01-18T00:17:10.628Z,10.00
2018-01-18T00:19:39.839Z,19.10
2018-01-18T00:22:09.066Z,12.82
2018-01-18T00:24:35.712Z,15.15
2018-01-18T00:27:04.778Z,12.15
2018-01-18T00:29:36.459Z,8.43
2018-01-18T00:32:18.980Z,11.40
2018-01-18T00:34:49.970Z,14.48
2018-01-18T00:37:16.350Z,16.67
2018-01-18T00:39:43.083Z,9.50
2018-01-18T00:42:22.894Z,7.37
2018-01-18T00:44:50.092Z,11.23
2018-01-18T00:47:23.622Z,9.77
2018-01-18T00:49:50.801Z,11.85
2018-01-18T00:52:20.274Z,11.77
2018-01-18T00:54:49.199Z,8.68
2018-01-18T00:57:20.656Z,14.23
2018-01-18T00:59:50.347Z,8.93
2018-01-18T01:02:17.627Z,10.07
2018-01-18T01:04:44.126Z,13.13
2018-01-18T01:07:10.427Z,13.60
2018-01-18T01:09:36.828Z,7.87
2018-01-18T01:12:18.693Z,9.43
2018-01-18T01:14:46.151Z,23.35
2018-01-18T01:17:12.338Z,14.60
2018-01-18T01:19:39.802Z,18.90
2018-01-18T01:22:17.117Z,10.20
2018-01-18T01:28:26.213Z,11.38
2018-01-18T01:30:53.974Z,11.43
2018-01-18T01:33:21.333Z,12.95
2018-01-18T01:35:48.536Z,16.50
2018-01-18T01:38:21.967Z,13.35
2018-01-18T01:40:48.330Z,11.55
2018-01-18T01:43:14.630Z,8.93
2018-01-18T01:45:50.870Z,16.02
2018-01-18T01:48:30.842Z,7.18
2018-01-18T01:50:58.642Z,12.63
2018-01-18T01:53:41.430Z,8.23
2018-01-18T01:56:08.051Z,11.63
2018-01-18T01:58:36.672Z,10.82
2018-01-18T02:01:09.935Z,16.62
2018-01-18T02:03:46.715Z,12.55
2018-01-18T02:06:15.032Z,15.35
2018-01-18T02:08:57.335Z,13.82
2018-01-18T02:14:11.914Z,20.17
2018-01-18T02:16:41.579Z,6.72
2018-01-18T02:19:15.319Z,12.27
2018-01-18T02:21:45.070Z,12.95
2018-01-18T02:24:22.928Z,11.90
2018-01-18T02:29:55.090Z,14.77
2018-01-18T02:32:22.293Z,16.25
2018-01-18T02:34:48.644Z,12.40
2018-01-18T02:37:16.936Z,14.07
2018-01-18T02:39:50.193Z,13.90
2018-01-18T02:42:16.745Z,15.52
2018-01-18T02:44:50.127Z,15.05
2018-01-18T02:47:17.708Z,10.45
2018-01-18T02:49:47.544Z,10.88
2018-01-18T02:52:14.672Z,11.98
2018-01-18T02:54:41.018Z,13.00
2018-01-18T02:57:07.746Z,12.68
2018-01-18T02:59:38.227Z,14.07
2018-01-18T03:02:04.639Z,11.60
2018-01-18T03:04:34.927Z,10.68
2018-01-18T03:07:01.600Z,14.45
2018-01-18T03:09:38.722Z,15.10
2018-01-18T03:12:27.460Z,7.37
2018-01-18T03:18:04.770Z,6.82
2018-01-18T03:20:31.593Z,9.27
2018-01-18T03:23:06.077Z,7.90
2018-01-18T03:25:33.746Z,5.93
2018-01-18T03:28:00.287Z,9.50
2018-01-18T03:30:26.947Z,6.60
2018-01-18T03:32:53.499Z,9.63
2018-01-18T03:38:51.217Z,8.13
2018-01-18T03:41:17.792Z,7.22
2018-01-18T03:43:44.104Z,6.78
2018-01-18T03:46:21.265Z,7.05
2018-01-18T03:48:49.889Z,11.25
2018-01-18T03:51:20.840Z,7.50
2018-01-18T03:53:47.262Z,4.05
2018-01-18T03:56:14.002Z,5.57
2018-01-18T04:08:12.556Z,3.58
2018-01-18T04:10:44.060Z,4.15
2018-01-18T04:13:12.491Z,5.45
2018-01-18T04:16:00.128Z,7.53
2018-01-18T04:18:29.767Z,2.67
2018-01-18T04:20:56.305Z,6.60
2018-01-18T04:23:23.001Z,2.95
2018-01-18T04:28:30.504Z,3.20
2018-01-18T04:31:06.142Z,3.50
2018-01-18T04:36:30.117Z,2.00
2018-01-18T04:39:08.383Z,3.40
2018-01-18T04:41:40.706Z,3.90
2018-01-18T08:21:28.118Z,6.05
2018-01-18T08:24:14.312Z,1.37
2018-01-18T08:29:44.990Z,4.10
2018-01-18T08:35:18.710Z,3.03
2018-01-18T08:38:01.047Z,3.62
2018-01-18T08:40:28.372Z,5.32
2018-01-18T08:42:55.116Z,1.60
2018-01-18T08:45:21.890Z,5.10
2018-01-18T08:47:49.128Z,7.93
2018-01-18T08:50:28.812Z,4.03
2018-01-18T08:56:05.512Z,2.85
2018-01-18T08:58:31.757Z,7.93
2018-01-18T09:01:01.925Z,7.60
2018-01-18T09:06:37.674Z,8.68
2018-01-18T09:09:26.764Z,8.95
2018-01-18T09:11:53.199Z,8.88
2018-01-18T09:17:21.779Z,11.98
2018-01-18T09:19:48.439Z,3.75
2018-01-18T09:22:17.111Z,8.10
2018-01-18T09:24:56.678Z,11.15
2018-01-18T09:27:26.818Z,5.15
2018-01-18T09:29:59.260Z,12.57
2018-01-18T09:39:08.028Z,5.78
2018-01-18T09:41:42.130Z,11.73
2018-01-18T09:44:20.994Z,11.20
2018-01-18T09:46:56.704Z,7.28
2018-01-18T10:20:24.384Z,8.95
2018-01-18T10:22:51.625Z,8.75
2018-01-18T10:34:38.859Z,7.00
2018-01-18T10:37:05.288Z,2.62
2018-01-18T10:39:38.566Z,3.97
2018-01-18T10:42:04.935Z,3.67
2018-01-18T10:44:31.759Z,4.32
2018-01-18T10:46:58.138Z,6.70
2018-01-18T10:52:18.817Z,6.57
2018-01-18T10:55:04.243Z,5.45
2018-01-18T10:57:50.351Z,4.85
2018-01-18T11:00:22.901Z,10.88
2018-01-18T11:09:19.693Z,2.95
2018-01-18T11:11:52.003Z,5.43
2018-01-18T11:17:32.225Z,5.78
2018-01-18T11:20:00.525Z,2.62
2018-01-18T11:22:28.395Z,3.47
2018-01-18T11:25:03.215Z,6.18
2018-01-18T11:30:40.695Z,4.87
2018-01-18T11:33:08.090Z,5.95
2018-01-18T11:41:39.692Z,4.55
2018-01-18T11:47:19.958Z,4.43
2018-01-18T11:56:03.066Z,6.82
2018-01-18T11:58:29.605Z,5.35
2018-01-18T12:00:58.167Z,5.75
2018-01-18T12:03:37.411Z,1.98
2018-01-18T12:06:11.307Z,3.30
2018-01-18T12:11:49.309Z,4.12
2018-01-18T12:17:40.682Z,5.12
2018-01-18T12:26:22.755Z,4.18
2018-01-18T12:38:20.567Z,7.60
2018-01-18T12:40:48.126Z,6.85
2018-01-18T12:43:17.937Z,7.15
2018-01-18T12:45:59.647Z,7.50
2018-01-18T12:48:36.611Z,7.37
2018-01-18T12:54:13.280Z,3.90
2018-01-18T12:56:41.671Z,10.07
2018-01-18T13:05:27.681Z,4.80
2018-01-18T13:29:24.626Z,1.42
2018-01-18T13:31:51.115Z,2.03
2018-01-18T13:34:42.704Z,1.55
2018-01-18T13:37:19.318Z,1.42
2018-01-18T13:39:45.660Z,1.50
2018-01-18T13:42:11.943Z,2.50
2018-01-18T13:47:44.463Z,3.17
2018-01-18T13:50:21.931Z,3.10
2018-01-18T13:55:56.881Z,7.37
2018-01-18T14:01:24.670Z,2.67
2018-01-18T14:04:15.854Z,2.50
2018-01-18T14:09:52.353Z,1.90
2018-01-18T14:18:42.451Z,6.30
2018-01-18T14:21:14.954Z,5.05
2018-01-18T14:27:20.394Z,4.12
2018-01-18T14:29:53.021Z,3.10
2018-01-18T14:32:19.754Z,4.68
2018-01-18T14:34:50.408Z,4.30
2018-01-18T14:49:33.141Z,4.32
2018-01-18T14:58:13.424Z,1.62
2018-01-18T15:00:42.791Z,3.12
2018-01-18T15:03:13.301Z,2.87
2018-01-18T15:05:41.496Z,3.25
2018-01-18T15:11:24.237Z,2.60
2018-01-18T15:13:50.707Z,3.85
2018-01-18T15:16:18.728Z,5.55
2018-01-18T15:21:35.951Z,2.58
2018-01-18T15:24:02.458Z,3.97
2018-01-18T15:35:30.791Z,5.07
2018-01-18T15:44:16.426Z,6.47
2018-01-18T15:46:48.315Z,11.52
2018-01-18T15:52:19.704Z,8.95
2018-01-18T15:54:50.635Z,8.80
2018-01-18T15:57:28.551Z,10.23
2018-01-18T15:59:55.769Z,7.72
2018-01-18T16:05:40.140Z,11.77
2018-01-18T16:10:50.459Z,8.77
2018-01-18T16:13:22.341Z,11.80
2018-01-18T16:15:48.886Z,7.10
2018-01-18T16:18:17.250Z,7.85
2018-01-18T16:20:43.714Z,11.07
2018-01-18T19:30:48.425Z,6.30
2018-01-18T19:39:16.546Z,12.00
2018-01-18T19:49:35.387Z,10.55
2018-01-18T19:52:01.634Z,15.55
2018-01-18T19:57:20.499Z,5.93
2018-01-18T19:59:47.131Z,8.25
2018-01-18T20:08:40.179Z,7.47
2018-01-18T20:11:07.549Z,12.18
2018-01-18T20:16:46.740Z,8.77
2018-01-18T20:19:20.637Z,9.07
2018-01-18T20:21:52.254Z,8.60
2018-01-18T20:24:30.754Z,7.60
2018-01-18T20:26:57.211Z,7.18
2018-01-18T20:29:41.506Z,10.82
2018-01-18T20:32:14.947Z,7.90
2018-01-18T20:35:21.815Z,8.10
2018-01-18T20:37:48.329Z,9.45
2018-01-18T20:40:16.256Z,11.35
2018-01-18T20:42:51.169Z,11.43
2018-01-18T20:45:21.030Z,10.77
2018-01-18T20:50:52.352Z,9.57
2018-01-18T20:56:10.781Z,11.27
2018-01-18T20:58:50.260Z,11.38
2018-01-18T21:01:25.118Z,8.68
2018-01-18T21:04:17.003Z,17.37
2018-01-18T21:16:01.188Z,15.07
2018-01-18T21:18:37.762Z,11.77
2018-01-18T21:27:27.722Z,10.48
2018-01-18T21:29:54.028Z,11.98
2018-01-18T21:32:20.332Z,7.57
2018-01-18T21:34:47.429Z,8.32
2018-01-18T21:37:17.593Z,10.65
2018-01-18T21:39:44.293Z,8.73
2018-01-18T21:45:20.662Z,6.05
2018-01-18T21:47:50.643Z,8.98
2018-01-18T21:50:17.322Z,12.40
2018-01-18T21:55:25.794Z,7.80
2018-01-18T21:57:57.733Z,7.75
2018-01-18T22:00:24.283Z,8.30
2018-01-18T22:06:01.030Z,7.50
2018-01-18T22:08:32.040Z,12.70
2018-01-18T22:10:58.439Z,7.70
2018-01-18T22:13:24.775Z,7.87
2018-01-18T22:19:09.644Z,12.25
2018-01-18T22:21:50.961Z,5.97
2018-01-18T22:34:08.044Z,11.05
2018-01-18T22:39:21.256Z,8.45
2018-01-18T22:41:47.746Z,8.13
2018-01-18T22:44:14.347Z,7.60
2018-01-18T22:46:40.998Z,8.45
2018-01-18T22:49:08.948Z,8.77
2018-01-18T22:51:38.590Z,11.63
2018-01-18T22:54:05.230Z,8.52
2018-01-18T22:56:32.392Z,7.90
2018-01-18T22:59:03.754Z,10.02
2018-01-18T23:01:32.353Z,12.25
2018-01-18T23:07:11.222Z,8.65
2018-01-18T23:09:37.749Z,6.70
2018-01-18T23:12:04.751Z,7.65
2018-01-18T23:14:43.867Z,8.30
2018-01-18T23:17:11.133Z,5.62
2018-01-18T23:19:37.539Z,6.18
2018-01-18T23:28:22.432Z,5.47
2018-01-18T23:30:49.123Z,7.70
2018-01-18T23:33:19.368Z,9.15
2018-01-18T23:38:58.551Z,8.27
2018-01-18T23:41:27.198Z,8.73
2018-01-18T23:47:12.436Z,8.80
2018-01-18T23:49:51.725Z,8.30
2018-01-18T23:52:18.195Z,8.07
2018-01-18T23:54:45.365Z,9.45
2018-01-18T23:57:13.369Z,8.13
2018-01-18T23:59:41.258Z,10.13
